Private Wetterstation Sandau
Wetterdaten: Dienstag, 05.02.2013
Datum Zeit Temp. A. Feuchte A. Luftdruck Regen Wind Richtung Richtung Taupunkt Windchill
05.02.2013 00:01 3,8 C 81 % 1003,1 hPa 0,0 l/m 21,2 km/h (4 Bft) W-SW 247 0,8 C -0,6 C
05.02.2013 00:06 3,8 C 81 % 1003,0 hPa 0,0 l/m 18,4 km/h (3 Bft) W-SW 247 0,8 C -0,2 C
05.02.2013 00:11 3,8 C 82 % 1002,8 hPa 0,0 l/m 20,9 km/h (4 Bft) W-SW 247 1,0 C -0,6 C
05.02.2013 00:16 3,7 C 82 % 1003,0 hPa 0,0 l/m 12,2 km/h (2 Bft) W-SW 247 0,9 C 0,6 C
05.02.2013 00:21 3,7 C 82 % 1002,8 hPa 0,0 l/m 12,2 km/h (2 Bft) W-SW 247 0,9 C 0,6 C
05.02.2013 00:26 3,8 C 82 % 1002,9 hPa 0,0 l/m 18,0 km/h (3 Bft) W 270 1,0 C -0,2 C
05.02.2013 00:31 3,8 C 82 % 1002,8 hPa 0,0 l/m 25,2 km/h (4 Bft) W 270 1,0 C -1,0 C
05.02.2013 00:36 3,8 C 82 % 1002,6 hPa 0,0 l/m 22,0 km/h (4 Bft) W 270 1,0 C -0,7 C
05.02.2013 00:41 3,8 C 82 % 1002,7 hPa 0,0 l/m 28,1 km/h (4 Bft) W 270 1,0 C -1,3 C
05.02.2013 00:46 3,8 C 82 % 1002,6 hPa 0,0 l/m 24,8 km/h (4 Bft) W 270 1,0 C -1,0 C
05.02.2013 00:51 3,8 C 82 % 1002,7 hPa 0,0 l/m 15,5 km/h (3 Bft) W 270 1,0 C 0,2 C
05.02.2013 00:56 3,6 C 82 % 1002,4 hPa 0,0 l/m 14,0 km/h (3 Bft) W-SW 247 0,8 C 0,2 C
05.02.2013 01:01 3,6 C 82 % 1002,3 hPa 0,0 l/m 15,5 km/h (3 Bft) W 270 0,8 C -0,1 C
05.02.2013 01:06 3,6 C 82 % 1002,3 hPa 0,0 l/m 15,8 km/h (3 Bft) W-SW 247 0,8 C -0,1 C
05.02.2013 01:11 3,6 C 82 % 1002,3 hPa 0,0 l/m 27,4 km/h (4 Bft) W-SW 247 0,8 C -1,5 C
05.02.2013 01:16 3,5 C 82 % 1002,4 hPa 0,0 l/m 14,4 km/h (3 Bft) W-SW 247 0,7 C -0,0 C
05.02.2013 01:21 3,5 C 83 % 1002,4 hPa 0,0 l/m 19,4 km/h (3 Bft) W-SW 247 0,9 C -0,7 C
05.02.2013 01:26 3,4 C 83 % 1002,2 hPa 0,0 l/m 13,3 km/h (3 Bft) W 270 0,8 C 0,1 C
05.02.2013 01:31 3,4 C 83 % 1002,2 hPa 0,0 l/m 6,1 km/h (2 Bft) W-NW 292 0,8 C 1,8 C
05.02.2013 01:36 3,4 C 83 % 1002,3 hPa 0,0 l/m 15,1 km/h (3 Bft) W-SW 247 0,8 C -0,2 C
05.02.2013 01:41 3,3 C 83 % 1002,3 hPa 0,0 l/m 22,0 km/h (4 Bft) W 270 0,7 C -1,3 C
05.02.2013 01:46 3,3 C 83 % 1002,2 hPa 0,0 l/m 12,6 km/h (3 Bft) W-SW 247 0,7 C 0,1 C
05.02.2013 01:51 3,3 C 83 % 1002,3 hPa 0,0 l/m 14,4 km/h (3 Bft) NW 315 0,7 C -0,2 C
05.02.2013 01:56 3,3 C 83 % 1002,3 hPa 0,0 l/m 27,7 km/h (4 Bft) W-SW 247 0,7 C -1,9 C
05.02.2013 02:01 3,3 C 84 % 1002,1 hPa 0,0 l/m 19,8 km/h (3 Bft) W 270 0,9 C -1,1 C
05.02.2013 02:06 3,3 C 84 % 1002,0 hPa 0,0 l/m 33,8 km/h (5 Bft) W-SW 247 0,9 C -2,5 C
05.02.2013 02:11 3,3 C 84 % 1002,1 hPa 0,0 l/m 16,6 km/h (3 Bft) W 270 0,9 C -0,6 C
05.02.2013 02:16 3,3 C 84 % 1001,9 hPa 0,0 l/m 19,8 km/h (3 Bft) W-SW 247 0,9 C -1,1 C
05.02.2013 02:21 3,3 C 84 % 1001,8 hPa 0,0 l/m 19,8 km/h (3 Bft) W-SW 247 0,9 C -1,1 C
05.02.2013 02:26 3,3 C 84 % 1001,8 hPa 0,0 l/m 19,4 km/h (3 Bft) W-SW 247 0,9 C -1,0 C
05.02.2013 02:31 3,3 C 84 % 1001,8 hPa 0,0 l/m 23,4 km/h (4 Bft) W 270 0,9 C -1,5 C
05.02.2013 02:36 3,3 C 84 % 1001,6 hPa 0,0 l/m 10,8 km/h (2 Bft) S-SO 157 0,9 C 0,4 C
05.02.2013 02:41 3,3 C 83 % 1001,5 hPa 0,0 l/m 10,1 km/h (2 Bft) W-SW 247 0,7 C 0,6 C
05.02.2013 02:46 3,3 C 83 % 1001,4 hPa 0,0 l/m 18,0 km/h (3 Bft) W-SW 247 0,7 C -0,8 C
05.02.2013 02:51 3,4 C 83 % 1001,4 hPa 0,0 l/m 28,8 km/h (4 Bft) W 270 0,8 C -1,9 C
05.02.2013 02:56 3,3 C 83 % 1001,3 hPa 0,0 l/m 19,8 km/h (3 Bft) SW 225 0,7 C -1,1 C
05.02.2013 03:01 3,3 C 83 % 1001,3 hPa 0,0 l/m 10,4 km/h (2 Bft) S-SW 202 0,7 C 0,5 C
05.02.2013 03:06 3,3 C 83 % 1001,2 hPa 0,0 l/m 13,7 km/h (3 Bft) W-SW 247 0,7 C -0,1 C
05.02.2013 03:11 3,3 C 83 % 1001,2 hPa 0,0 l/m 22,7 km/h (4 Bft) SW 225 0,7 C -1,4 C
05.02.2013 03:16 3,3 C 83 % 1001,1 hPa 0,0 l/m 15,1 km/h (3 Bft) W-SW 247 0,7 C -0,4 C
05.02.2013 03:21 3,3 C 83 % 1000,8 hPa 0,0 l/m 22,3 km/h (4 Bft) W 270 0,7 C -1,4 C
05.02.2013 03:26 3,2 C 83 % 1000,7 hPa 0,0 l/m 26,6 km/h (4 Bft) W 270 0,6 C -2,0 C
05.02.2013 03:31 3,2 C 83 % 1000,7 hPa 0,0 l/m 20,2 km/h (4 Bft) W-SW 247 0,6 C -1,2 C
05.02.2013 03:36 3,2 C 84 % 1000,7 hPa 0,0 l/m 19,8 km/h (3 Bft) W 270 0,8 C -1,2 C
05.02.2013 03:41 3,2 C 84 % 1000,6 hPa 0,0 l/m 22,7 km/h (4 Bft) W 270 0,8 C -1,5 C
05.02.2013 03:46 3,2 C 84 % 1000,4 hPa 0,0 l/m 16,9 km/h (3 Bft) SW 225 0,8 C -0,8 C
05.02.2013 03:51 3,3 C 84 % 1000,4 hPa 0,0 l/m 18,7 km/h (3 Bft) W-SW 247 0,9 C -0,9 C
05.02.2013 03:56 3,3 C 84 % 1000,3 hPa 0,0 l/m 19,1 km/h (3 Bft) W-SW 247 0,9 C -1,0 C
05.02.2013 04:01 3,4 C 84 % 1000,4 hPa 0,0 l/m 10,8 km/h (2 Bft) W-NW 292 1,0 C 0,6 C
05.02.2013 04:06 3,4 C 84 % 1000,2 hPa 0,0 l/m 29,9 km/h (5 Bft) W 270 1,0 C -2,0 C
05.02.2013 04:11 3,5 C 84 % 1000,1 hPa 0,0 l/m 19,1 km/h (3 Bft) W 270 1,1 C -0,7 C
05.02.2013 04:16 3,6 C 83 % 1000,0 hPa 0,0 l/m 14,4 km/h (3 Bft) W 270 1,0 C 0,1 C
05.02.2013 04:21 3,6 C 83 % 999,9 hPa 0,0 l/m 13,7 km/h (3 Bft) W-SW 247 1,0 C 0,2 C
05.02.2013 04:26 3,6 C 83 % 999,9 hPa 0,0 l/m 8,3 km/h (2 Bft) S-SW 202 1,0 C 1,4 C
05.02.2013 04:31 3,5 C 83 % 999,8 hPa 0,0 l/m 10,8 km/h (2 Bft) W-SW 247 0,9 C 0,7 C
05.02.2013 04:36 3,4 C 83 % 999,7 hPa 0,0 l/m 14,8 km/h (3 Bft) S-SO 157 0,8 C -0,2 C
05.02.2013 04:41 3,3 C 83 % 999,8 hPa 0,0 l/m 7,9 km/h (2 Bft) SW 225 0,7 C 1,2 C
05.02.2013 04:46 3,3 C 83 % 999,7 hPa 0,0 l/m 4,3 km/h (1 Bft) W 270 0,7 C 3,3 C
05.02.2013 04:51 3,3 C 84 % 999,5 hPa 0,0 l/m 9,7 km/h (2 Bft) W-NW 292 0,9 C 0,7 C
05.02.2013 04:56 3,2 C 84 % 999,5 hPa 0,0 l/m 14,4 km/h (3 Bft) W-SW 247 0,8 C -0,4 C
05.02.2013 05:01 3,3 C 84 % 999,5 hPa 0,0 l/m 18,4 km/h (3 Bft) W-SW 247 0,9 C -0,9 C
05.02.2013 05:06 3,3 C 84 % 999,2 hPa 0,0 l/m 10,4 km/h (2 Bft) W 270 0,9 C 0,5 C
05.02.2013 05:11 3,3 C 84 % 999,3 hPa 0,0 l/m 11,2 km/h (2 Bft) W-SW 247 0,9 C 0,4 C
05.02.2013 05:16 3,3 C 84 % 999,2 hPa 0,0 l/m 7,6 km/h (2 Bft) W-SW 247 0,9 C 1,3 C
05.02.2013 05:21 3,3 C 84 % 999,2 hPa 0,0 l/m 14,0 km/h (3 Bft) W-SW 247 0,9 C -0,2 C
05.02.2013 05:26 3,2 C 84 % 999,2 hPa 0,0 l/m 8,3 km/h (2 Bft) W-SW 247 0,8 C 0,9 C
05.02.2013 05:31 3,2 C 84 % 999,1 hPa 0,0 l/m 7,2 km/h (2 Bft) S 180 0,8 C 1,3 C
05.02.2013 05:36 3,2 C 84 % 999,0 hPa 0,0 l/m 6,1 km/h (2 Bft) S-SW 202 0,8 C 1,6 C
05.02.2013 05:41 3,2 C 83 % 998,8 hPa 0,0 l/m 14,0 km/h (3 Bft) W-SW 247 0,6 C -0,3 C
05.02.2013 05:46 3,2 C 83 % 999,0 hPa 0,0 l/m 10,8 km/h (2 Bft) S 180 0,6 C 0,3 C
05.02.2013 05:51 3,1 C 83 % 998,8 hPa 0,0 l/m 11,5 km/h (2 Bft) W-SW 247 0,5 C 0,1 C
05.02.2013 05:56 3,1 C 83 % 998,8 hPa 0,0 l/m 9,0 km/h (2 Bft) W-SW 247 0,5 C 0,6 C
05.02.2013 06:01 3,2 C 84 % 998,7 hPa 0,0 l/m 23,0 km/h (4 Bft) S-SW 202 0,8 C -1,6 C
05.02.2013 06:06 3,3 C 84 % 998,5 hPa 0,0 l/m 23,4 km/h (4 Bft) W-SW 247 0,9 C -1,5 C
05.02.2013 06:11 3,6 C 84 % 998,6 hPa 0,0 l/m 20,5 km/h (4 Bft) W 270 1,2 C -0,8 C
05.02.2013 06:16 3,6 C 84 % 998,5 hPa 0,0 l/m 13,7 km/h (3 Bft) W-SW 247 1,2 C 0,2 C
05.02.2013 06:21 3,8 C 84 % 998,3 hPa 0,0 l/m 8,6 km/h (2 Bft) W-SW 247 1,4 C 1,6 C
05.02.2013 06:26 3,8 C 83 % 998,1 hPa 0,0 l/m 5,8 km/h (2 Bft) S-SW 202 1,2 C 2,4 C
05.02.2013 06:31 3,8 C 83 % 998,0 hPa 0,0 l/m 5,4 km/h (1 Bft) SW 225 1,2 C 2,6 C
05.02.2013 06:36 3,6 C 83 % 997,9 hPa 0,0 l/m 9,7 km/h (2 Bft) W-SW 247 1,0 C 1,1 C
05.02.2013 06:41 3,6 C 83 % 998,0 hPa 0,0 l/m 11,2 km/h (2 Bft) SW 225 1,0 C 0,7 C
05.02.2013 06:46 3,6 C 83 % 997,9 hPa 0,0 l/m 7,6 km/h (2 Bft) S-SW 202 1,0 C 1,6 C
05.02.2013 06:51 3,7 C 83 % 997,9 hPa 0,0 l/m 13,0 km/h (3 Bft) SW 225 1,1 C 0,5 C
05.02.2013 06:56 3,8 C 83 % 997,7 hPa 0,0 l/m 7,6 km/h (2 Bft) SW 225 1,2 C 1,8 C
05.02.2013 07:01 3,8 C 83 % 997,7 hPa 0,0 l/m 11,2 km/h (2 Bft) W-SW 247 1,2 C 1,0 C
05.02.2013 07:06 3,8 C 83 % 997,6 hPa 0,0 l/m 4,7 km/h (1 Bft) S-SW 202 1,2 C 2,8 C
05.02.2013 07:11 3,8 C 83 % 997,5 hPa 0,0 l/m 4,0 km/h (1 Bft) S-SO 157 1,2 C 3,8 C
05.02.2013 07:16 3,8 C 83 % 997,5 hPa 0,0 l/m 9,4 km/h (2 Bft) SW 225 1,2 C 1,4 C
05.02.2013 07:21 3,8 C 83 % 997,3 hPa 0,0 l/m 4,0 km/h (1 Bft) S-SW 202 1,2 C 3,8 C
05.02.2013 07:26 3,6 C 83 % 997,6 hPa 0,0 l/m 4,7 km/h (1 Bft) SW 225 1,0 C 2,6 C
05.02.2013 07:31 3,4 C 83 % 997,5 hPa 0,0 l/m 3,2 km/h (1 Bft) S-SO 157 0,8 C 3,4 C
05.02.2013 07:36 3,2 C 83 % 997,4 hPa 0,0 l/m 8,3 km/h (2 Bft) S-SO 157 0,6 C 0,9 C
05.02.2013 07:41 2,9 C 83 % 997,3 hPa 0,0 l/m 4,7 km/h (1 Bft) S 180 0,3 C 1,8 C
05.02.2013 07:46 2,8 C 84 % 997,2 hPa 0,0 l/m 4,7 km/h (1 Bft) S 180 0,4 C 1,7 C
05.02.2013 07:51 2,7 C 84 % 997,3 hPa 0,0 l/m 6,1 km/h (2 Bft) SW 225 0,3 C 1,0 C
05.02.2013 07:56 2,6 C 84 % 997,1 hPa 0,0 l/m 9,0 km/h (2 Bft) S-SO 157 0,2 C 0,0 C
05.02.2013 08:01 2,5 C 85 % 996,9 hPa 0,0 l/m 4,7 km/h (1 Bft) S-SO 157 0,2 C 1,4 C
05.02.2013 08:06 2,5 C 85 % 996,9 hPa 0,0 l/m 6,1 km/h (2 Bft) S-SO 157 0,2 C 0,8 C
05.02.2013 08:11 2,5 C 85 % 996,9 hPa 0,0 l/m 4,7 km/h (1 Bft) S-SW 202 0,2 C 1,4 C
05.02.2013 08:16 2,4 C 86 % 996,9 hPa 0,0 l/m 7,6 km/h (2 Bft) SW 225 0,3 C 0,2 C
05.02.2013 08:21 2,6 C 86 % 996,7 hPa 0,0 l/m 5,0 km/h (1 Bft) SW 225 0,5 C 1,4 C
05.02.2013 08:26 2,7 C 86 % 996,9 hPa 0,0 l/m 6,1 km/h (2 Bft) S-SW 202 0,6 C 1,0 C
05.02.2013 08:31 2,9 C 86 % 996,8 hPa 0,0 l/m 8,3 km/h (2 Bft) SW 225 0,8 C 0,6 C
05.02.2013 08:36 3,1 C 86 % 996,8 hPa 0,0 l/m 13,0 km/h (3 Bft) S-SW 202 1,0 C -0,2 C
05.02.2013 08:41 3,2 C 86 % 996,8 hPa 0,0 l/m 9,7 km/h (2 Bft) S-SW 202 1,1 C 0,6 C
05.02.2013 08:46 3,3 C 86 % 996,5 hPa 0,0 l/m 11,9 km/h (2 Bft) S-SW 202 1,2 C 0,2 C
05.02.2013 08:51 3,5 C 85 % 996,6 hPa 0,0 l/m 14,0 km/h (3 Bft) SW 225 1,2 C 0,1 C
05.02.2013 08:56 3,6 C 85 % 996,5 hPa 0,0 l/m 18,4 km/h (3 Bft) W-SW 247 1,3 C -0,5 C
05.02.2013 09:01 3,6 C 85 % 996,4 hPa 0,0 l/m 16,2 km/h (3 Bft) SW 225 1,3 C -0,2 C
05.02.2013 09:06 3,8 C 85 % 996,1 hPa 0,0 l/m 7,9 km/h (2 Bft) S-SW 202 1,5 C 1,8 C
05.02.2013 09:11 3,8 C 85 % 996,2 hPa 0,0 l/m 10,1 km/h (2 Bft) W-SW 247 1,5 C 1,2 C
05.02.2013 09:16 3,9 C 85 % 996,2 hPa 0,0 l/m 7,6 km/h (2 Bft) S-SW 202 1,6 C 2,0 C
05.02.2013 09:21 4,0 C 85 % 996,1 hPa 0,0 l/m 3,6 km/h (1 Bft) SW 225 1,7 C 4,0 C
05.02.2013 09:26 3,9 C 85 % 996,0 hPa 0,0 l/m 13,0 km/h (3 Bft) S-SW 202 1,6 C 0,7 C
05.02.2013 09:31 3,8 C 84 % 996,1 hPa 0,5 l/m 5,0 km/h (1 Bft) S 180 1,4 C 2,7 C
05.02.2013 09:36 3,6 C 85 % 995,9 hPa 0,0 l/m 5,8 km/h (2 Bft) S 180 1,3 C 2,2 C
05.02.2013 09:41 3,5 C 85 % 995,8 hPa 0,0 l/m 5,0 km/h (1 Bft) SW 225 1,2 C 2,4 C
05.02.2013 09:46 3,4 C 84 % 995,7 hPa 0,0 l/m 6,5 km/h (2 Bft) W-SW 247 1,0 C 1,7 C
05.02.2013 09:51 3,4 C 85 % 995,6 hPa 0,0 l/m 4,0 km/h (1 Bft) S-SO 157 1,1 C 3,4 C
05.02.2013 09:56 3,4 C 85 % 995,3 hPa 0,0 l/m 9,4 km/h (2 Bft) S-SO 157 1,1 C 0,9 C
05.02.2013 10:01 3,6 C 85 % 995,2 hPa 0,0 l/m 10,8 km/h (2 Bft) S-SW 202 1,3 C 0,8 C
05.02.2013 10:06 3,8 C 85 % 995,0 hPa 0,0 l/m 17,6 km/h (3 Bft) S-SW 202 1,5 C -0,1 C
05.02.2013 10:11 4,1 C 85 % 995,0 hPa 0,0 l/m 16,6 km/h (3 Bft) S-SW 202 1,8 C 0,4 C
05.02.2013 10:16 4,2 C 85 % 994,7 hPa 0,0 l/m 9,4 km/h (2 Bft) SW 225 1,9 C 1,8 C
05.02.2013 10:21 4,4 C 84 % 994,8 hPa 0,0 l/m 15,8 km/h (3 Bft) SW 225 1,9 C 0,9 C
05.02.2013 10:26 4,4 C 83 % 994,7 hPa 0,0 l/m 22,3 km/h (4 Bft) S 180 1,8 C 0,0 C
05.02.2013 10:31 4,4 C 83 % 994,5 hPa 0,0 l/m 14,8 km/h (3 Bft) SW 225 1,8 C 1,0 C
05.02.2013 10:36 4,5 C 83 % 994,4 hPa 0,0 l/m 23,0 km/h (4 Bft) S-SW 202 1,9 C 0,1 C
05.02.2013 10:41 4,5 C 82 % 994,4 hPa 0,0 l/m 10,8 km/h (2 Bft) SW 225 1,7 C 1,9 C
05.02.2013 10:46 4,4 C 82 % 994,0 hPa 0,0 l/m 18,7 km/h (3 Bft) S 180 1,6 C 0,5 C
05.02.2013 10:51 4,5 C 82 % 994,2 hPa 0,0 l/m 18,7 km/h (3 Bft) S 180 1,7 C 0,6 C
05.02.2013 10:56 4,5 C 82 % 994,1 hPa 0,0 l/m 8,6 km/h (2 Bft) S-SW 202 1,7 C 2,4 C
05.02.2013 11:01 4,6 C 82 % 994,2 hPa 0,0 l/m 8,6 km/h (2 Bft) S 180 1,8 C 2,5 C
05.02.2013 11:06 4,6 C 81 % 993,9 hPa 0,0 l/m 8,6 km/h (2 Bft) S-SW 202 1,6 C 2,5 C
05.02.2013 11:11 4,7 C 81 % 994,0 hPa 0,0 l/m 10,4 km/h (2 Bft) S-SO 157 1,7 C 2,2 C
05.02.2013 11:16 4,8 C 81 % 993,9 hPa 0,0 l/m 16,9 km/h (3 Bft) S-SW 202 1,8 C 1,2 C
05.02.2013 11:21 4,9 C 81 % 993,9 hPa 0,0 l/m 13,7 km/h (3 Bft) S 180 1,9 C 1,8 C
05.02.2013 11:26 4,9 C 80 % 993,7 hPa 0,0 l/m 14,0 km/h (3 Bft) S-SO 157 1,7 C 1,8 C
05.02.2013 11:31 5,0 C 80 % 993,6 hPa 0,0 l/m 19,4 km/h (3 Bft) S-SW 202 1,8 C 1,1 C
05.02.2013 11:36 5,1 C 79 % 993,5 hPa 1,0 l/m 22,0 km/h (4 Bft) S-SW 202 1,8 C 1,0 C
05.02.2013 11:41 5,2 C 78 % 993,6 hPa 0,0 l/m 20,9 km/h (4 Bft) SW 225 1,7 C 1,2 C
05.02.2013 11:46 5,3 C 77 % 993,6 hPa 0,0 l/m 11,9 km/h (2 Bft) W-SW 247 1,6 C 2,6 C
05.02.2013 11:51 5,4 C 76 % 993,6 hPa 0,0 l/m 24,5 km/h (4 Bft) W 270 1,5 C 1,1 C
05.02.2013 11:56 5,5 C 76 % 993,4 hPa 0,0 l/m 27,4 km/h (4 Bft) SW 225 1,6 C 0,9 C
05.02.2013 12:01 5,6 C 76 % 993,4 hPa 0,0 l/m 32,4 km/h (5 Bft) W 270 1,7 C 0,6 C
05.02.2013 12:06 5,6 C 76 % 993,7 hPa 0,0 l/m 23,4 km/h (4 Bft) W-SW 247 1,7 C 1,4 C
05.02.2013 12:11 5,4 C 78 % 994,0 hPa 0,0 l/m 20,2 km/h (4 Bft) W 270 1,9 C 1,5 C
05.02.2013 12:16 4,8 C 80 % 994,0 hPa 0,0 l/m 29,5 km/h (5 Bft) W-SW 247 1,6 C -0,2 C
05.02.2013 12:21 4,1 C 82 % 993,9 hPa 0,5 l/m 10,4 km/h (2 Bft) SW 225 1,3 C 1,5 C
05.02.2013 12:26 3,9 C 84 % 993,7 hPa 0,0 l/m 27,0 km/h (4 Bft) W 270 1,4 C -1,1 C
05.02.2013 12:31 3,9 C 85 % 993,5 hPa 0,0 l/m 22,0 km/h (4 Bft) W-SW 247 1,6 C -0,6 C
05.02.2013 12:36 3,9 C 85 % 993,6 hPa 0,0 l/m 21,6 km/h (4 Bft) W-SW 247 1,6 C -0,5 C
05.02.2013 12:41 3,9 C 85 % 993,6 hPa 0,0 l/m 31,3 km/h (5 Bft) W-SW 247 1,6 C -1,5 C
05.02.2013 12:46 4,1 C 85 % 993,6 hPa 0,0 l/m 18,0 km/h (3 Bft) W-SW 247 1,8 C 0,2 C
05.02.2013 12:51 4,1 C 85 % 993,4 hPa 0,0 l/m 20,5 km/h (4 Bft) W-SW 247 1,8 C -0,1 C
05.02.2013 12:56 4,2 C 85 % 993,2 hPa 0,0 l/m 7,6 km/h (2 Bft) SW 225 1,9 C 2,3 C
05.02.2013 13:01 4,2 C 85 % 993,3 hPa 0,0 l/m 18,0 km/h (3 Bft) W 270 1,9 C 0,3 C
05.02.2013 13:06 4,2 C 85 % 993,3 hPa 0,0 l/m 26,3 km/h (4 Bft) W 270 1,9 C -0,6 C
05.02.2013 13:11 4,3 C 85 % 993,4 hPa 0,0 l/m 28,1 km/h (4 Bft) W-NW 292 2,0 C -0,7 C
05.02.2013 13:16 4,3 C 85 % 993,5 hPa 0,0 l/m 21,2 km/h (4 Bft) W-SW 247 2,0 C 0,0 C
05.02.2013 13:21 4,2 C 85 % 993,1 hPa 0,0 l/m 14,4 km/h (3 Bft) W-SW 247 1,9 C 0,9 C
05.02.2013 13:26 4,1 C 85 % 993,3 hPa 0,0 l/m 23,0 km/h (4 Bft) W-SW 247 1,8 C -0,4 C
05.02.2013 13:31 4,1 C 85 % 993,3 hPa 0,0 l/m 35,3 km/h (5 Bft) W-NW 292 1,8 C -1,6 C
05.02.2013 13:36 3,8 C 85 % 993,3 hPa 0,0 l/m 16,6 km/h (3 Bft) W 270 1,5 C 0,0 C
05.02.2013 13:41 3,8 C 85 % 993,2 hPa 0,0 l/m 20,5 km/h (4 Bft) NW 315 1,5 C -0,5 C
05.02.2013 13:46 3,6 C 85 % 993,2 hPa 0,0 l/m 26,6 km/h (4 Bft) W-NW 292 1,3 C -1,4 C
05.02.2013 13:51 3,4 C 85 % 993,5 hPa 0,0 l/m 14,8 km/h (3 Bft) W-SW 247 1,1 C -0,2 C
05.02.2013 13:56 3,4 C 86 % 993,5 hPa 0,0 l/m 7,2 km/h (2 Bft) W-SW 247 1,3 C 1,5 C
05.02.2013 14:01 3,3 C 86 % 993,4 hPa 0,0 l/m 3,6 km/h (1 Bft) W-NW 292 1,2 C 3,3 C
05.02.2013 14:06 3,3 C 86 % 993,3 hPa 0,0 l/m 4,0 km/h (1 Bft) W-SW 247 1,2 C 3,3 C
05.02.2013 14:11 3,4 C 87 % 993,3 hPa 0,0 l/m 4,0 km/h (1 Bft) W-SW 247 1,4 C 3,4 C
05.02.2013 14:16 3,4 C 87 % 993,4 hPa 0,0 l/m 23,0 km/h (4 Bft) W 270 1,4 C -1,3 C
05.02.2013 14:21 3,4 C 87 % 993,7 hPa 0,5 l/m 21,6 km/h (4 Bft) W 270 1,4 C -1,2 C
05.02.2013 14:26 3,1 C 86 % 993,5 hPa 0,0 l/m 9,4 km/h (2 Bft) W 270 1,0 C 0,5 C
05.02.2013 14:31 2,8 C 86 % 993,5 hPa 0,0 l/m 30,6 km/h (5 Bft) W 270 0,7 C -2,9 C
05.02.2013 14:36 2,6 C 87 % 993,4 hPa 0,0 l/m 19,1 km/h (3 Bft) W-SW 247 0,7 C -1,8 C
05.02.2013 14:41 2,5 C 87 % 993,6 hPa 0,0 l/m 11,2 km/h (2 Bft) W-SW 247 0,6 C -0,6 C
05.02.2013 14:46 2,5 C 88 % 993,6 hPa 0,0 l/m 14,0 km/h (3 Bft) W 270 0,7 C -1,2 C
05.02.2013 14:51 2,5 C 88 % 993,6 hPa 0,0 l/m 16,9 km/h (3 Bft) W 270 0,7 C -1,6 C
05.02.2013 14:56 2,6 C 88 % 993,8 hPa 0,0 l/m 11,2 km/h (2 Bft) NW 315 0,8 C -0,5 C
05.02.2013 15:01 2,6 C 88 % 993,9 hPa 0,0 l/m 6,1 km/h (2 Bft) W 270 0,8 C 0,9 C
05.02.2013 15:06 2,6 C 88 % 993,9 hPa 0,0 l/m 23,4 km/h (4 Bft) W-SW 247 0,8 C -2,4 C
05.02.2013 15:11 2,6 C 88 % 993,8 hPa 0,0 l/m 5,0 km/h (1 Bft) W 270 0,8 C 1,4 C
05.02.2013 15:16 2,6 C 87 % 993,9 hPa 0,0 l/m 13,7 km/h (3 Bft) W-SW 247 0,7 C -1,0 C
05.02.2013 15:21 2,8 C 88 % 994,1 hPa 0,0 l/m 17,3 km/h (3 Bft) W 270 1,0 C -1,3 C
05.02.2013 15:26 2,8 C 87 % 994,2 hPa 0,0 l/m 20,2 km/h (4 Bft) W 270 0,9 C -1,7 C
05.02.2013 15:31 2,8 C 87 % 994,4 hPa 0,0 l/m 4,0 km/h (1 Bft) W 270 0,9 C 2,8 C
05.02.2013 15:36 2,8 C 87 % 994,3 hPa 0,0 l/m 18,4 km/h (3 Bft) W 270 0,9 C -1,5 C
05.02.2013 15:41 2,8 C 86 % 994,3 hPa 0,0 l/m 10,8 km/h (2 Bft) W 270 0,7 C -0,2 C
05.02.2013 15:46 2,8 C 86 % 994,2 hPa 0,0 l/m 7,6 km/h (2 Bft) W-SW 247 0,7 C 0,7 C
05.02.2013 15:51 2,8 C 86 % 994,3 hPa 0,0 l/m 18,4 km/h (3 Bft) W-SW 247 0,7 C -1,5 C
05.02.2013 15:56 2,9 C 86 % 994,3 hPa 0,0 l/m 17,3 km/h (3 Bft) W 270 0,8 C -1,2 C
05.02.2013 16:01 2,9 C 85 % 994,3 hPa 0,0 l/m 14,8 km/h (3 Bft) NW 315 0,6 C -0,8 C
05.02.2013 16:06 2,9 C 84 % 994,3 hPa 0,0 l/m 15,5 km/h (3 Bft) W 270 0,5 C -0,9 C
05.02.2013 16:11 2,9 C 84 % 994,4 hPa 0,0 l/m 16,9 km/h (3 Bft) NW 315 0,5 C -1,1 C
05.02.2013 16:16 2,9 C 83 % 994,3 hPa 0,0 l/m 8,3 km/h (2 Bft) W-SW 247 0,3 C 0,6 C
05.02.2013 16:21 2,7 C 84 % 994,4 hPa 0,0 l/m 18,7 km/h (3 Bft) W 270 0,3 C -1,7 C
05.02.2013 16:26 2,6 C 84 % 994,3 hPa 0,0 l/m 9,4 km/h (2 Bft) W-NW 292 0,2 C -0,1 C
05.02.2013 16:31 2,5 C 84 % 994,3 hPa 0,0 l/m 9,7 km/h (2 Bft) W 270 0,1 C -0,3 C
05.02.2013 16:36 2,5 C 84 % 994,4 hPa 0,0 l/m 18,4 km/h (3 Bft) W-SW 247 0,1 C -1,9 C
05.02.2013 16:41 2,4 C 84 % 994,4 hPa 0,0 l/m 24,1 km/h (4 Bft) W 270 -0,0 C -2,7 C
05.02.2013 16:46 2,5 C 85 % 994,4 hPa 0,0 l/m 11,5 km/h (2 Bft) S-SW 202 0,2 C -0,7 C
05.02.2013 16:51 2,5 C 85 % 994,5 hPa 0,0 l/m 9,7 km/h (2 Bft) SW 225 0,2 C -0,3 C
05.02.2013 16:56 2,5 C 84 % 994,5 hPa 0,0 l/m 20,9 km/h (4 Bft) W 270 0,1 C -2,2 C
05.02.2013 17:01 2,5 C 84 % 994,6 hPa 0,0 l/m 7,2 km/h (2 Bft) W 270 0,1 C 0,4 C
05.02.2013 17:06 2,4 C 84 % 994,4 hPa 0,0 l/m 16,9 km/h (3 Bft) W 270 -0,0 C -1,8 C
05.02.2013 17:11 2,4 C 84 % 994,6 hPa 0,0 l/m 16,9 km/h (3 Bft) W-SW 247 -0,0 C -1,8 C
05.02.2013 17:16 2,3 C 84 % 994,7 hPa 0,0 l/m 19,1 km/h (3 Bft) W 270 -0,1 C -2,2 C
05.02.2013 17:21 2,3 C 85 % 995,0 hPa 0,0 l/m 6,5 km/h (2 Bft) W-NW 292 0,0 C 0,4 C
05.02.2013 17:26 2,1 C 85 % 995,0 hPa 0,0 l/m 10,4 km/h (2 Bft) W 270 -0,2 C -0,9 C
05.02.2013 17:31 1,7 C 85 % 995,1 hPa 0,0 l/m 11,5 km/h (2 Bft) NW 315 -0,5 C -1,6 C
05.02.2013 17:36 1,3 C 86 % 994,9 hPa 0,0 l/m 14,8 km/h (3 Bft) W 270 -0,8 C -2,8 C
05.02.2013 17:41 1,2 C 87 % 995,0 hPa 0,0 l/m 6,5 km/h (2 Bft) W 270 -0,7 C -0,8 C
05.02.2013 17:46 1,1 C 88 % 995,2 hPa 0,0 l/m 8,3 km/h (2 Bft) SW 225 -0,7 C -1,5 C
05.02.2013 17:51 1,1 C 89 % 995,2 hPa 0,0 l/m 6,8 km/h (2 Bft) W 270 -0,5 C -1,1 C
05.02.2013 17:56 1,0 C 89 % 995,2 hPa 0,0 l/m 5,0 km/h (1 Bft) W-NW 292 -0,6 C -0,5 C
05.02.2013 18:01 0,9 C 89 % 995,1 hPa 0,0 l/m 7,6 km/h (2 Bft) W-NW 292 -0,7 C -1,6 C
05.02.2013 18:06 0,9 C 89 % 995,1 hPa 0,0 l/m 3,2 km/h (1 Bft) W 270 -0,7 C 0,9 C
05.02.2013 18:11 0,9 C 89 % 995,2 hPa 0,0 l/m 4,3 km/h (1 Bft) W 270 -0,7 C 0,9 C
05.02.2013 18:16 0,9 C 89 % 995,2 hPa 0,0 l/m 11,9 km/h (2 Bft) W 270 -0,7 C -2,7 C
05.02.2013 18:21 0,8 C 89 % 995,6 hPa 0,0 l/m 4,0 km/h (1 Bft) W 270 -0,8 C 0,8 C
05.02.2013 18:26 0,8 C 90 % 995,6 hPa 0,0 l/m 9,4 km/h (2 Bft) W 270 -0,6 C -2,2 C
05.02.2013 18:31 0,8 C 90 % 995,4 hPa 0,0 l/m 5,8 km/h (2 Bft) SW 225 -0,6 C -1,0 C
05.02.2013 18:36 0,8 C 90 % 995,5 hPa 0,0 l/m 6,8 km/h (2 Bft) W-SW 247 -0,6 C -1,4 C
05.02.2013 18:41 0,8 C 90 % 995,4 hPa 0,0 l/m 10,8 km/h (2 Bft) W-SW 247 -0,6 C -2,6 C
05.02.2013 18:46 0,8 C 90 % 995,3 hPa 0,0 l/m 4,7 km/h (1 Bft) SW 225 -0,6 C -0,5 C
05.02.2013 18:51 0,8 C 90 % 995,3 hPa 0,0 l/m 12,6 km/h (3 Bft) W-SW 247 -0,6 C -3,0 C
05.02.2013 18:56 0,8 C 90 % 995,4 hPa 0,0 l/m 2,5 km/h (1 Bft) W 270 -0,6 C 0,8 C
05.02.2013 19:01 0,8 C 90 % 995,4 hPa 0,0 l/m 18,0 km/h (3 Bft) W-SW 247 -0,6 C -3,9 C
05.02.2013 19:06 0,8 C 90 % 995,5 hPa 0,0 l/m 11,2 km/h (2 Bft) W 270 -0,6 C -2,7 C
05.02.2013 19:11 0,8 C 91 % 995,4 hPa 0,0 l/m 7,6 km/h (2 Bft) W 270 -0,5 C -1,7 C
05.02.2013 19:16 0,7 C 90 % 995,3 hPa 0,0 l/m 8,6 km/h (2 Bft) W 270 -0,7 C -2,1 C
05.02.2013 19:21 0,6 C 90 % 995,4 hPa 0,0 l/m 4,7 km/h (1 Bft) W-SW 247 -0,8 C -0,8 C
05.02.2013 19:26 0,6 C 90 % 995,4 hPa 0,0 l/m 13,3 km/h (3 Bft) W 270 -0,8 C -3,3 C
05.02.2013 19:31 0,5 C 90 % 995,4 hPa 0,0 l/m 7,9 km/h (2 Bft) W-SW 247 -0,9 C -2,1 C
05.02.2013 19:36 0,5 C 90 % 995,4 hPa 0,0 l/m 6,5 km/h (2 Bft) W-SW 247 -0,9 C -1,6 C
05.02.2013 19:41 0,4 C 91 % 995,5 hPa 0,0 l/m 5,8 km/h (2 Bft) W 270 -0,9 C -1,5 C
05.02.2013 19:46 0,4 C 91 % 995,5 hPa 0,0 l/m 8,6 km/h (2 Bft) W 270 -0,9 C -2,5 C
05.02.2013 19:51 0,4 C 91 % 995,5 hPa 0,0 l/m 10,4 km/h (2 Bft) W-SW 247 -0,9 C -2,9 C
05.02.2013 19:56 0,4 C 91 % 995,5 hPa 0,0 l/m 6,1 km/h (2 Bft) W 270 -0,9 C -1,6 C
05.02.2013 20:01 0,6 C 91 % 995,5 hPa 0,0 l/m 18,4 km/h (3 Bft) W-SW 247 -0,7 C -4,2 C
05.02.2013 20:06 0,6 C 91 % 995,5 hPa 0,0 l/m 14,0 km/h (3 Bft) W-SW 247 -0,7 C -3,5 C
05.02.2013 20:11 0,6 C 91 % 995,5 hPa 0,0 l/m 11,9 km/h (2 Bft) W-SW 247 -0,7 C -3,1 C
05.02.2013 20:16 0,6 C 91 % 995,4 hPa 0,0 l/m 11,9 km/h (2 Bft) W-SW 247 -0,7 C -3,1 C
05.02.2013 20:21 0,6 C 90 % 995,4 hPa 0,0 l/m 7,9 km/h (2 Bft) W-SW 247 -0,8 C -2,0 C
05.02.2013 20:26 0,6 C 90 % 995,5 hPa 0,0 l/m 11,2 km/h (2 Bft) W 270 -0,8 C -2,9 C
05.02.2013 20:31 0,6 C 90 % 995,5 hPa 0,0 l/m 12,2 km/h (2 Bft) W-SW 247 -0,8 C -3,1 C
05.02.2013 20:36 0,5 C 90 % 995,6 hPa 0,0 l/m 10,8 km/h (2 Bft) W-SW 247 -0,9 C -2,9 C
05.02.2013 20:41 0,5 C 90 % 995,6 hPa 0,0 l/m 10,1 km/h (2 Bft) SW 225 -0,9 C -2,7 C
05.02.2013 20:46 0,4 C 90 % 995,8 hPa 0,0 l/m 10,8 km/h (2 Bft) W 270 -1,0 C -3,0 C
05.02.2013 20:51 0,4 C 90 % 995,9 hPa 0,0 l/m 6,5 km/h (2 Bft) SW 225 -1,0 C -1,8 C
05.02.2013 20:56 0,5 C 90 % 995,9 hPa 0,0 l/m 7,6 km/h (2 Bft) S-SW 202 -0,9 C -2,0 C
05.02.2013 21:01 0,5 C 90 % 996,0 hPa 0,0 l/m 6,5 km/h (2 Bft) SW 225 -0,9 C -1,6 C
05.02.2013 21:06 0,6 C 90 % 996,1 hPa 0,0 l/m 8,6 km/h (2 Bft) W-SW 247 -0,8 C -2,2 C
05.02.2013 21:11 0,6 C 90 % 996,1 hPa 0,0 l/m 23,4 km/h (4 Bft) W 270 -0,8 C -4,9 C
05.02.2013 21:16 0,6 C 90 % 996,1 hPa 0,0 l/m 18,4 km/h (3 Bft) W 270 -0,8 C -4,2 C
05.02.2013 21:21 0,6 C 90 % 996,1 hPa 0,0 l/m 13,0 km/h (3 Bft) W-SW 247 -0,8 C -3,3 C
05.02.2013 21:26 0,6 C 90 % 996,1 hPa 0,0 l/m 9,0 km/h (2 Bft) W-SW 247 -0,8 C -2,3 C
05.02.2013 21:31 0,6 C 90 % 996,2 hPa 0,0 l/m 9,4 km/h (2 Bft) W-SW 247 -0,8 C -2,4 C
05.02.2013 21:36 0,5 C 90 % 996,2 hPa 0,0 l/m 3,6 km/h (1 Bft) W 270 -0,9 C 0,5 C
05.02.2013 21:41 0,5 C 90 % 996,2 hPa 0,0 l/m 6,5 km/h (2 Bft) W-SW 247 -0,9 C -1,6 C
05.02.2013 21:46 0,5 C 90 % 996,4 hPa 0,0 l/m 11,2 km/h (2 Bft) W-SW 247 -0,9 C -3,0 C
05.02.2013 21:51 0,4 C 90 % 996,4 hPa 0,0 l/m 11,9 km/h (2 Bft) SW 225 -1,0 C -3,3 C
05.02.2013 21:56 0,4 C 90 % 996,5 hPa 0,0 l/m 10,8 km/h (2 Bft) S-SW 202 -1,0 C -3,0 C
05.02.2013 22:01 0,4 C 90 % 996,2 hPa 0,0 l/m 7,6 km/h (2 Bft) W-SW 247 -1,0 C -2,1 C
05.02.2013 22:06 0,5 C 90 % 996,4 hPa 0,0 l/m 9,0 km/h (2 Bft) W 270 -0,9 C -2,4 C
05.02.2013 22:11 0,6 C 90 % 996,4 hPa 0,0 l/m 9,7 km/h (2 Bft) W-SW 247 -0,8 C -2,5 C
05.02.2013 22:16 0,6 C 90 % 996,5 hPa 0,0 l/m 10,1 km/h (2 Bft) S 180 -0,8 C -2,6 C
05.02.2013 22:21 0,6 C 90 % 996,4 hPa 0,0 l/m 8,3 km/h (2 Bft) W-SW 247 -0,8 C -2,1 C
05.02.2013 22:26 0,7 C 90 % 996,4 hPa 0,0 l/m 11,2 km/h (2 Bft) W-SW 247 -0,7 C -2,8 C
05.02.2013 22:31 0,7 C 89 % 996,4 hPa 0,0 l/m 11,9 km/h (2 Bft) W-SW 247 -0,9 C -2,9 C
05.02.2013 22:36 0,7 C 89 % 996,6 hPa 0,0 l/m 11,9 km/h (2 Bft) W-SW 247 -0,9 C -2,9 C
05.02.2013 22:41 0,7 C 89 % 996,4 hPa 0,0 l/m 4,0 km/h (1 Bft) S 180 -0,9 C 0,7 C
05.02.2013 22:46 0,6 C 89 % 996,5 hPa 0,0 l/m 7,6 km/h (2 Bft) W-SW 247 -1,0 C -1,9 C
05.02.2013 22:51 0,6 C 89 % 996,5 hPa 0,0 l/m 8,3 km/h (2 Bft) W-SW 247 -1,0 C -2,1 C
05.02.2013 22:56 0,5 C 89 % 996,4 hPa 0,0 l/m 9,7 km/h (2 Bft) W-SW 247 -1,1 C -2,6 C
05.02.2013 23:01 0,4 C 89 % 996,5 hPa 0,0 l/m 11,9 km/h (2 Bft) W-SW 247 -1,2 C -3,3 C
05.02.2013 23:06 0,4 C 89 % 996,5 hPa 0,0 l/m 8,3 km/h (2 Bft) W-SW 247 -1,2 C -2,4 C
05.02.2013 23:11 0,4 C 89 % 996,6 hPa 0,0 l/m 9,0 km/h (2 Bft) W 270 -1,2 C -2,6 C
05.02.2013 23:16 0,4 C 89 % 996,5 hPa 0,0 l/m 14,4 km/h (3 Bft) W-SW 247 -1,2 C -3,8 C
05.02.2013 23:21 0,4 C 89 % 996,6 hPa 0,0 l/m 15,5 km/h (3 Bft) W-SW 247 -1,2 C -4,0 C
05.02.2013 23:26 0,3 C 89 % 996,7 hPa 0,0 l/m 6,1 km/h (2 Bft) W-SW 247 -1,3 C -1,7 C
05.02.2013 23:31 0,3 C 89 % 996,7 hPa 0,0 l/m 7,6 km/h (2 Bft) W-SW 247 -1,3 C -2,3 C
05.02.2013 23:36 0,2 C 89 % 996,8 hPa 0,0 l/m 7,6 km/h (2 Bft) SW 225 -1,4 C -2,4 C
05.02.2013 23:41 0,2 C 89 % 996,6 hPa 0,0 l/m 7,9 km/h (2 Bft) W-SW 247 -1,4 C -2,5 C
05.02.2013 23:46 0,2 C 89 % 996,8 hPa 0,0 l/m 4,0 km/h (1 Bft) W-SW 247 -1,4 C 0,2 C
05.02.2013 23:51 0,1 C 89 % 996,8 hPa 0,0 l/m 5,0 km/h (1 Bft) SW 225 -1,5 C -1,5 C
05.02.2013 23:56 0,1 C 89 % 996,8 hPa 0,0 l/m 5,8 km/h (2 Bft) SW 225 -1,5 C -1,8 C
_ Min-Zeit 23:51 11:51 13:21 - 18:56 - - 23:51 21:11
Minimum _ 0,1 C 76 % 993,1 hPa - 2,5 km/h (1 Bft) - - -1,5 C -4,9 C
_ Max-Zeit 12:01 19:11 00:01 11:36 13:31 - - 13:11 09:21
Maximum _ 5,6 C 91 % 1003,1 hPa 1,0 l/m 35,3 km/h
W-NW (5 Bft)
- - 2,0 C 4,0 C
Durchschnitt _ 2,7 C 85 % 996,8 hPa #2,6 l/m 13,3 km/h (3 Bft) W-SW - 0,5 C -0,4 C
(c) by David Heller